Portada
METAR-TAF:

METAR-TAF

Aeroports :

Alta Floresta, Mato Grosso, Brasil

latitud: 09-52S, longitud: 056-06W, altitud: 288 m

Observació

L'informe es va fer fa 7 hores i 20 minuts, a les 00:00 UTC
Vent 3 kt del Sud-Est
Temperatura 24°C
Humitat 65%
Pressió 1014 hPa
Visibilitat 10 km o més
sense núvols per sota de 1500 mi sense presència de cumulonimbus.

METAR: SBAT 200000Z 13003KT CAVOK 24/17 Q1014

Hora: 03:20 (07:20 UTC)

Pronòstic

L'informe es va fer fa 5 hores i 20 minuts, a les 02:00 UTC
Pronòstic vàlid del 20 a les 06 UTC al 20 a les 18 UTC
Vent kt del Nord
Visibilitat: 7000 m
Probabilitat 30%
l' 20 a les 09 UTC al 20 a les 11 UTC
Visibilitat: 4000 m
boirina
Evolucionant progressivament
l' 20 a les 11 UTC al 20 a les 13 UTC
Vent 7 kt del Est/Sud-Est

TAF: SBAT 200200Z 2006/2018 00000KT 7000 NSCTN20/2011Z TX36/2018Z PROB30 2009/2011 4000 BR BECMG 2011/2013 11007KT RMK PHI

Observacions i pronòstics meteorològics de més de 4000 aeroports (METAR i TAF).

Les estacions disponibles són els punts grocs i vermells al mapa.

Posi el ratolí al punt desitjat per veure el nom de l'estació.

Feu clic per veure les observacions i els pronòstics meteorològics.

Per canviar el mapa: feu clic els botons verds amb una creu de color negre per apropar; al botó verd amb un guió per allunyar la imatge; o en les fletxes verdes per a mapes adjacents.


METAR-TAF: